createdAt,value
2022-12-03T07:47:00.972Z,13.23
2022-12-03T07:49:28.708Z,12.57
2022-12-03T07:54:24.865Z,12.07
2022-12-03T07:56:56.562Z,13.52
2022-12-03T07:59:27.629Z,13.32
2022-12-03T08:01:55.128Z,13.65
2022-12-03T08:04:22.879Z,13.00
2022-12-03T08:06:50.574Z,13.93
2022-12-03T08:09:17.989Z,12.93
2022-12-03T08:11:49.463Z,12.05
2022-12-03T08:14:19.950Z,13.68
2022-12-03T08:16:48.778Z,13.68
2022-12-03T08:19:18.128Z,13.82
2022-12-03T08:21:45.602Z,13.02
2022-12-03T08:29:11.846Z,13.55
2022-12-03T08:31:40.036Z,13.10
2022-12-03T08:34:22.279Z,12.27
2022-12-03T08:36:56.203Z,11.88
2022-12-03T08:39:49.621Z,12.57
2022-12-03T08:42:41.895Z,13.65
2022-12-03T08:45:28.343Z,13.88
2022-12-03T08:48:00.553Z,13.50
2022-12-03T08:50:31.142Z,13.13
2022-12-03T08:53:20.882Z,14.40
2022-12-03T08:55:53.107Z,13.57
2022-12-03T08:58:38.885Z,13.25
2022-12-03T09:01:12.185Z,12.55
2022-12-03T09:03:49.503Z,13.70
2022-12-03T09:08:44.438Z,13.88
2022-12-03T09:13:39.297Z,14.40
2022-12-03T09:16:07.395Z,12.90
2022-12-03T09:18:35.016Z,14.13
2022-12-03T09:21:02.541Z,13.43
2022-12-03T09:25:57.152Z,15.00
2022-12-03T09:33:19.408Z,13.80
2022-12-03T09:35:46.907Z,13.85
2022-12-03T09:38:14.312Z,14.98
2022-12-03T09:40:42.432Z,14.25
2022-12-03T09:43:11.032Z,13.80
2022-12-03T09:45:38.843Z,14.32
2022-12-03T09:48:06.524Z,13.88
2022-12-03T09:50:34.310Z,14.02
2022-12-03T09:53:03.891Z,14.25
2022-12-03T09:55:31.922Z,15.25
2022-12-03T09:58:00.800Z,14.50
2022-12-03T10:00:30.523Z,14.45
2022-12-03T10:03:02.206Z,15.90
2022-12-03T10:05:30.095Z,15.23
2022-12-03T10:08:06.253Z,14.35
2022-12-03T10:10:35.463Z,14.00
2022-12-03T10:13:04.148Z,13.38
2022-12-03T10:15:32.243Z,14.00
2022-12-03T10:18:01.486Z,14.63
2022-12-03T10:20:28.972Z,13.77
2022-12-03T10:30:29.057Z,13.77
2022-12-03T10:32:58.606Z,13.13
2022-12-03T10:35:51.476Z,14.05
2022-12-03T10:38:19.421Z,13.10
2022-12-03T10:40:46.949Z,15.77
2022-12-03T10:43:20.272Z,14.75
2022-12-03T10:45:48.869Z,14.77
2022-12-03T10:48:17.776Z,15.07
2022-12-03T10:50:56.576Z,21.15
2022-12-03T10:53:28.546Z,22.13
2022-12-03T10:55:59.796Z,17.23
2022-12-03T10:58:29.703Z,13.85
2022-12-03T11:00:58.696Z,13.90
2022-12-03T11:03:28.912Z,13.73
2022-12-03T11:05:57.906Z,13.95
2022-12-03T11:08:27.925Z,13.75
2022-12-03T11:10:58.735Z,13.82
2022-12-03T11:13:44.609Z,12.90
2022-12-03T11:16:13.403Z,12.93
2022-12-03T11:18:40.781Z,12.98
2022-12-03T11:21:12.104Z,12.77
2022-12-03T11:23:45.606Z,13.73
2022-12-03T11:26:18.613Z,13.82
2022-12-03T11:28:46.826Z,12.40
2022-12-03T11:31:36.343Z,11.95
2022-12-03T11:34:17.205Z,12.23
2022-12-03T11:37:12.368Z,11.93
2022-12-03T11:39:52.871Z,12.95
2022-12-03T11:42:27.356Z,12.50
2022-12-03T11:45:05.408Z,12.15
2022-12-03T11:47:39.687Z,13.23
2022-12-03T11:50:40.181Z,12.25
2022-12-03T11:53:07.903Z,12.95
2022-12-03T11:55:40.925Z,12.23
2022-12-03T11:58:29.964Z,13.45
2022-12-03T12:01:00.435Z,11.68
2022-12-03T12:03:33.494Z,13.70
2022-12-03T12:06:09.778Z,12.18
2022-12-03T12:08:39.917Z,12.57
2022-12-03T12:11:21.162Z,13.77
2022-12-03T12:14:02.831Z,12.40
2022-12-03T12:16:52.823Z,11.90
2022-12-03T12:19:33.625Z,12.52
2022-12-03T12:22:25.283Z,13.00
2022-12-03T12:24:56.477Z,12.57
2022-12-03T12:27:45.162Z,11.60
2022-12-03T12:30:21.729Z,13.07
2022-12-03T12:32:53.591Z,12.95
2022-12-03T12:35:21.137Z,11.82
2022-12-03T12:40:32.951Z,11.48
2022-12-03T12:43:25.049Z,11.35
2022-12-03T12:45:55.269Z,11.30
2022-12-03T12:48:24.812Z,12.38
2022-12-03T12:51:11.350Z,12.73
2022-12-03T12:53:42.653Z,12.68
2022-12-03T12:56:27.744Z,13.02
2022-12-03T12:58:59.432Z,12.30
2022-12-03T13:01:30.057Z,11.43
2022-12-03T13:03:59.670Z,13.32
2022-12-03T13:06:30.339Z,11.80
2022-12-03T13:09:01.315Z,12.05
2022-12-03T13:11:51.878Z,12.75
2022-12-03T13:14:24.010Z,11.88
2022-12-03T13:16:54.958Z,11.55
2022-12-03T13:19:25.086Z,12.82
2022-12-03T13:21:54.312Z,12.15
2022-12-03T13:24:40.705Z,12.65
2022-12-03T13:27:13.867Z,12.98
2022-12-03T13:29:41.386Z,12.60
2022-12-03T13:34:42.876Z,12.38
2022-12-03T13:37:20.986Z,13.52
2022-12-03T13:39:50.976Z,12.95
2022-12-03T13:42:46.096Z,12.23
2022-12-03T13:45:15.920Z,11.90
2022-12-03T13:47:55.235Z,12.57
2022-12-03T13:50:31.413Z,13.38
2022-12-03T13:53:01.097Z,12.38
2022-12-03T13:55:31.166Z,12.80
2022-12-03T13:57:58.836Z,12.60
2022-12-03T14:00:26.361Z,13.52
2022-12-03T14:02:54.009Z,13.82
2022-12-03T14:05:22.493Z,12.10
2022-12-03T14:07:50.206Z,13.68
2022-12-03T14:10:17.802Z,12.73
2022-12-03T14:22:38.165Z,12.05
2022-12-03T14:25:07.134Z,12.35
2022-12-03T14:27:35.169Z,12.15
2022-12-03T14:30:02.788Z,12.98
2022-12-03T14:32:30.433Z,12.43
2022-12-03T14:34:57.962Z,12.73
2022-12-03T14:37:25.511Z,12.73
2022-12-03T14:42:21.187Z,12.38
2022-12-03T14:44:52.389Z,12.02
2022-12-03T14:47:24.986Z,12.02
2022-12-03T14:49:53.187Z,13.32
2022-12-03T14:52:20.838Z,11.88
2022-12-03T14:57:16.517Z,13.02
2022-12-03T14:59:44.870Z,13.27
2022-12-03T15:02:13.217Z,12.57
2022-12-03T15:04:41.337Z,12.13
2022-12-03T15:07:09.602Z,11.50
2022-12-03T15:09:37.179Z,11.80
2022-12-03T15:14:32.097Z,12.48
2022-12-03T15:16:59.554Z,12.50
2022-12-03T15:26:53.586Z,11.52
2022-12-03T15:29:21.225Z,12.32
2022-12-03T15:34:21.822Z,11.30
2022-12-03T15:36:50.598Z,12.07
2022-12-03T15:39:18.089Z,11.07
2022-12-03T15:49:07.130Z,11.48
2022-12-03T15:51:34.622Z,11.80
2022-12-03T15:54:02.154Z,11.68
2022-12-03T15:58:56.830Z,11.63
2022-12-03T16:03:52.117Z,13.15
2022-12-03T16:08:48.180Z,12.10
2022-12-03T16:11:16.039Z,11.35
2022-12-03T16:13:43.571Z,11.80
2022-12-03T16:23:32.604Z,10.80
2022-12-03T16:26:00.225Z,12.07
2022-12-03T16:35:55.317Z,11.48
2022-12-03T16:38:22.738Z,11.52
2022-12-03T16:43:17.684Z,11.00
2022-12-03T16:48:48.828Z,11.27
2022-12-03T16:51:17.071Z,11.38
2022-12-03T16:53:45.124Z,11.70
2022-12-03T16:56:12.559Z,12.27
2022-12-03T17:01:07.684Z,10.68
2022-12-03T17:03:35.380Z,11.05
2022-12-03T17:08:31.033Z,10.63
2022-12-03T17:10:58.543Z,12.23
2022-12-03T17:13:25.957Z,13.50
2022-12-03T17:15:53.400Z,13.95
2022-12-03T17:20:57.091Z,12.30
2022-12-03T17:23:24.686Z,12.57
2022-12-03T17:33:14.116Z,11.45
2022-12-03T17:38:09.760Z,11.38
2022-12-03T17:40:37.198Z,11.80
2022-12-03T17:47:59.134Z,11.90
2022-12-03T17:50:26.928Z,11.90
2022-12-03T17:52:54.410Z,12.10
2022-12-03T17:58:04.261Z,11.30
2022-12-03T18:00:33.285Z,11.25
2022-12-03T18:03:00.874Z,12.23
2022-12-03T18:10:22.877Z,11.65
2022-12-03T18:17:44.982Z,11.93
2022-12-03T18:20:12.576Z,12.77
2022-12-03T18:22:40.217Z,13.05
2022-12-03T18:25:08.115Z,12.88
2022-12-03T18:27:35.651Z,13.50
2022-12-03T18:32:30.663Z,12.80
2022-12-03T18:37:32.363Z,13.27
2022-12-03T18:40:00.522Z,12.80
2022-12-03T18:42:28.071Z,13.52
2022-12-03T18:47:27.724Z,13.27
2022-12-03T18:49:56.359Z,13.85
2022-12-03T18:52:25.198Z,12.73
2022-12-03T18:54:54.519Z,13.30
2022-12-03T18:57:22.011Z,13.55
2022-12-03T18:59:49.671Z,14.65
2022-12-03T19:05:09.742Z,13.45
2022-12-03T19:07:37.804Z,12.65
2022-12-03T19:10:05.961Z,12.65
2022-12-03T19:12:33.780Z,12.55
2022-12-03T19:15:01.558Z,13.43
2022-12-03T19:17:28.956Z,13.63
2022-12-03T19:22:24.462Z,12.50
2022-12-03T19:24:52.102Z,13.88
2022-12-03T19:27:19.572Z,13.68
2022-12-03T19:32:17.545Z,13.27
2022-12-03T19:37:12.283Z,14.57
2022-12-03T19:44:34.441Z,14.18
2022-12-03T19:56:52.042Z,14.77
2022-12-03T19:59:19.402Z,13.93
2022-12-03T20:04:14.362Z,14.13
2022-12-03T20:11:42.703Z,15.45
2022-12-03T20:14:15.371Z,14.15
2022-12-03T20:16:44.060Z,15.30
2022-12-03T20:19:14.024Z,15.23
2022-12-03T20:21:42.926Z,15.00
2022-12-03T20:24:14.568Z,15.05
2022-12-03T20:26:42.472Z,15.75
2022-12-03T20:29:09.837Z,14.88
2022-12-03T20:31:37.458Z,15.70
2022-12-03T20:36:33.044Z,17.02
2022-12-03T20:39:03.013Z,14.52
2022-12-03T20:41:30.897Z,15.13
2022-12-03T20:43:58.318Z,15.43
2022-12-03T20:48:55.523Z,15.25
2022-12-03T20:51:26.388Z,15.30
2022-12-03T20:53:54.189Z,16.42
2022-12-03T20:56:26.020Z,15.02
2022-12-03T20:58:53.832Z,14.95
2022-12-03T21:01:24.385Z,14.98
2022-12-03T21:03:53.970Z,16.55
2022-12-03T21:06:22.496Z,15.48
2022-12-03T21:08:52.243Z,15.13
2022-12-03T21:11:24.181Z,14.90
2022-12-03T21:13:52.568Z,15.45
2022-12-03T21:16:45.693Z,16.17
2022-12-03T21:19:11.135Z,15.15
2022-12-03T21:21:38.589Z,15.05
2022-12-03T21:26:33.437Z,14.13
2022-12-03T21:31:28.265Z,14.13
2022-12-03T21:33:56.846Z,14.68
2022-12-03T21:36:25.397Z,15.82
2022-12-03T21:38:53.314Z,14.60
2022-12-03T21:41:20.762Z,14.43
2022-12-03T21:47:10.409Z,13.85
2022-12-03T21:49:04.875Z,14.20
2022-12-03T21:56:26.798Z,14.35
2022-12-03T22:01:24.510Z,13.23
2022-12-03T22:03:52.090Z,13.40
2022-12-03T22:06:20.411Z,14.32
2022-12-03T22:08:48.294Z,13.07
2022-12-03T22:11:21.510Z,14.13
2022-12-03T22:13:49.345Z,14.18
2022-12-03T22:16:19.764Z,14.63
2022-12-03T22:18:48.021Z,12.57
2022-12-03T22:21:18.306Z,13.35
2022-12-03T22:23:46.429Z,13.48
2022-12-03T22:26:16.460Z,13.75
2022-12-03T22:28:48.669Z,14.85
2022-12-03T22:31:18.295Z,13.90
2022-12-03T22:33:48.494Z,13.77
2022-12-03T22:36:20.885Z,14.02
2022-12-03T22:38:50.471Z,13.70
2022-12-03T22:41:19.176Z,14.07
2022-12-03T22:43:47.635Z,13.00
2022-12-03T22:46:15.954Z,14.15
2022-12-03T22:48:47.932Z,13.65
2022-12-03T22:51:18.540Z,15.00
2022-12-03T22:53:49.250Z,12.98
2022-12-03T22:56:21.766Z,14.10
2022-12-03T22:58:50.701Z,13.77
2022-12-03T23:01:28.009Z,14.45
2022-12-03T23:03:55.776Z,13.45
2022-12-03T23:06:24.207Z,14.10
2022-12-03T23:08:52.505Z,14.00
2022-12-03T23:11:20.198Z,14.20
2022-12-03T23:13:48.537Z,14.30
2022-12-03T23:16:18.999Z,13.60
2022-12-03T23:18:46.628Z,14.27
2022-12-03T23:21:23.921Z,13.48
2022-12-03T23:23:54.817Z,14.57
2022-12-03T23:26:22.243Z,13.70
2022-12-03T23:28:49.858Z,14.30
2022-12-03T23:33:53.373Z,12.38
2022-12-03T23:36:22.330Z,12.13
2022-12-03T23:38:49.945Z,13.43
2022-12-03T23:43:46.829Z,14.27
2022-12-03T23:46:17.892Z,12.90
2022-12-03T23:48:46.044Z,12.93
2022-12-03T23:51:16.306Z,12.52
2022-12-03T23:53:44.989Z,12.88
2022-12-03T23:56:15.998Z,12.63
2022-12-03T23:58:44.530Z,12.98
